Terminal Aerodrome Forecast
Issued by NWS

Home | Current Version | Previous Version | Text Only | Print | Product List | Glossary On
Versions: 1 2 3 4 5 6 7 8 9 10 11 12 13 14 15 16 17 18 19 20 21 22 23 24 25 26 27 28 29 30 31 32 33 34
247
FTUS41 KOKX 060533
TAFGON
TAF
KGON 060533Z 0606/0706 03010KT P6SM -RA OVC015
     FM060800 03009KT 6SM -RA BR SCT005 OVC008
     FM061200 05014G20KT 5SM -RA BR OVC008
     FM061700 08018G24KT 3SM -RA BR OVC005
     FM070000 08012KT 1SM -DZ BR OVC004=

USA.gov is the U.S. government's official web portal to all federal, state and local government web resources and services.